BTI37D EYVI-EVRA
Flight info
| Callsign | BTI37D |
|---|---|
| Flight time | 0h 30m |
| Altitude | 16000 |
| Route | ATMEZ DCT ERIVA |
| Aircraft | A320/M-SDE3FGHIRWY/LB1 |
Departure
| Time | 2026-05-05 19:05 |
|---|---|
| Airport | Vilnius International Airport (EYVI) |
Arrival
| Time | 2026-05-05 19:35 |
|---|---|
| Airport | Riga International Airport (EVRA) |
| Time | Latitude | Longitude | Altitude | Speed | Heading |
|---|---|---|---|---|---|
| 2026-05-05 18:44 | 54.64491 | 25.28180 | 626 ft | 0 kts | 270° |
| 2026-05-05 18:58 | 54.64491 | 25.28187 | 626 ft | 2 kts | 270° |
| 2026-05-05 18:58 | 54.64489 | 25.28217 | 627 ft | 2 kts | 290° |
| 2026-05-05 18:58 | 54.64481 | 25.28243 | 627 ft | 2 kts | 309° |
| 2026-05-05 18:58 | 54.64468 | 25.28263 | 628 ft | 2 kts | 329° |
| 2026-05-05 18:59 | 54.64452 | 25.28274 | 628 ft | 2 kts | 349° |
| 2026-05-05 18:59 | 54.64442 | 25.28275 | 628 ft | 1 kts | 2° |
| 2026-05-05 18:59 | 54.64439 | 25.28275 | 628 ft | 0 kts | 1° |
| 2026-05-05 18:59 | 54.64440 | 25.28275 | 628 ft | 0 kts | 1° |
| 2026-05-05 19:01 | 54.64451 | 25.28275 | 628 ft | 0 kts | 3° |
| 2026-05-05 19:01 | 54.64472 | 25.28309 | 629 ft | 5 kts | 68° |
| 2026-05-05 19:01 | 54.64480 | 25.28356 | 630 ft | 3 kts | 75° |
| 2026-05-05 19:02 | 54.64488 | 25.28414 | 631 ft | 6 kts | 76° |
| 2026-05-05 19:02 | 54.64500 | 25.28505 | 633 ft | 9 kts | 77° |
| 2026-05-05 19:02 | 54.64521 | 25.28610 | 635 ft | 4 kts | 58° |
| 2026-05-05 19:02 | 54.64534 | 25.28650 | 636 ft | 4 kts | 64° |
| 2026-05-05 19:03 | 54.64546 | 25.28721 | 637 ft | 7 kts | 78° |
| 2026-05-05 19:03 | 54.64556 | 25.28830 | 638 ft | 11 kts | 80° |
| 2026-05-05 19:03 | 54.64547 | 25.28966 | 638 ft | 11 kts | 116° |
| 2026-05-05 19:03 | 54.64509 | 25.29091 | 639 ft | 11 kts | 118° |
| 2026-05-05 19:04 | 54.64470 | 25.29220 | 639 ft | 12 kts | 117° |
| 2026-05-05 19:04 | 54.64404 | 25.29261 | 639 ft | 12 kts | 198° |
| 2026-05-05 19:04 | 54.64155 | 25.29091 | 636 ft | 76 kts | 202° |
| 2026-05-05 19:04 | 54.63349 | 25.28536 | 598 ft | 157 kts | 201° |
| 2026-05-05 19:05 | 54.62170 | 25.27766 | 947 ft | 188 kts | 202° |
| 2026-05-05 19:05 | 54.60935 | 25.26975 | 1732 ft | 195 kts | 202° |
| 2026-05-05 19:05 | 54.59652 | 25.26126 | 2538 ft | 204 kts | 204° |
| 2026-05-05 19:05 | 54.58284 | 25.25168 | 3253 ft | 220 kts | 204° |
| 2026-05-05 19:06 | 54.56780 | 25.24108 | 3976 ft | 236 kts | 204° |
| 2026-05-05 19:06 | 54.55248 | 25.23027 | 4846 ft | 242 kts | 205° |
| 2026-05-05 19:06 | 54.53703 | 25.21934 | 5796 ft | 244 kts | 205° |
| 2026-05-05 19:06 | 54.52144 | 25.20782 | 6743 ft | 244 kts | 212° |
| 2026-05-05 19:07 | 54.50907 | 25.18821 | 7625 ft | 242 kts | 240° |
| 2026-05-05 19:07 | 54.50357 | 25.16097 | 8385 ft | 248 kts | 265° |
| 2026-05-05 19:07 | 54.50606 | 25.13078 | 8949 ft | 264 kts | 284° |
| 2026-05-05 19:07 | 54.51095 | 25.10028 | 9787 ft | 268 kts | 283° |
| 2026-05-05 19:08 | 54.51580 | 25.06902 | 10463 ft | 278 kts | 283° |
| 2026-05-05 19:08 | 54.52211 | 25.03650 | 10823 ft | 299 kts | 294° |
| 2026-05-05 19:08 | 54.53451 | 25.00628 | 11127 ft | 324 kts | 311° |
| 2026-05-05 19:08 | 54.55364 | 24.98264 | 11412 ft | 350 kts | 331° |
| 2026-05-05 19:09 | 54.57808 | 24.97139 | 11743 ft | 374 kts | 352° |
| 2026-05-05 19:09 | 54.60450 | 24.97550 | 12265 ft | 386 kts | 6° |
| 2026-05-05 19:09 | 54.63142 | 24.98410 | 12851 ft | 391 kts | 7° |
| 2026-05-05 19:09 | 54.65832 | 24.99269 | 13415 ft | 395 kts | 6° |
| 2026-05-05 19:10 | 54.68559 | 25.00132 | 13970 ft | 399 kts | 6° |
| 2026-05-05 19:10 | 54.71361 | 25.01018 | 14515 ft | 403 kts | 6° |
| 2026-05-05 19:10 | 54.74177 | 25.01911 | 15048 ft | 407 kts | 6° |
| 2026-05-05 19:10 | 54.77046 | 25.02823 | 15553 ft | 408 kts | 6° |
| 2026-05-05 19:11 | 54.79899 | 25.03733 | 15808 ft | 409 kts | 6° |
| 2026-05-05 19:11 | 54.82735 | 25.04638 | 15870 ft | 407 kts | 6° |
| 2026-05-05 19:11 | 54.85548 | 25.05538 | 15881 ft | 414 kts | 6° |
| 2026-05-05 19:11 | 54.88491 | 25.06475 | 15876 ft | 432 kts | 6° |
| 2026-05-05 19:12 | 54.91530 | 25.07450 | 15875 ft | 440 kts | 6° |
| 2026-05-05 19:12 | 54.94618 | 25.08447 | 15882 ft | 442 kts | 6° |
| 2026-05-05 19:12 | 54.97712 | 25.09446 | 15880 ft | 442 kts | 6° |
| 2026-05-05 19:12 | 55.00762 | 25.10430 | 15882 ft | 442 kts | 6° |
| 2026-05-05 19:13 | 55.03816 | 25.11416 | 15884 ft | 443 kts | 6° |
| 2026-05-05 19:13 | 55.06846 | 25.12256 | 15884 ft | 439 kts | 359° |
| 2026-05-05 19:13 | 55.09849 | 25.11895 | 15886 ft | 431 kts | 346° |
| 2026-05-05 19:13 | 55.12863 | 25.10841 | 15880 ft | 428 kts | 342° |
| 2026-05-05 19:14 | 55.15789 | 25.09703 | 15878 ft | 428 kts | 342° |
| 2026-05-05 19:14 | 55.18724 | 25.08576 | 15880 ft | 428 kts | 342° |
| 2026-05-05 19:14 | 55.21637 | 25.07470 | 15881 ft | 429 kts | 343° |
| 2026-05-05 19:14 | 55.24570 | 25.06363 | 15877 ft | 429 kts | 343° |
| 2026-05-05 19:15 | 55.27482 | 25.05267 | 15882 ft | 428 kts | 343° |
| 2026-05-05 19:15 | 55.30392 | 25.04172 | 15873 ft | 428 kts | 343° |
| 2026-05-05 19:15 | 55.33305 | 25.03075 | 15879 ft | 429 kts | 343° |
| 2026-05-05 19:15 | 55.36221 | 25.01977 | 15881 ft | 429 kts | 343° |
| 2026-05-05 19:16 | 55.39162 | 25.00869 | 15880 ft | 428 kts | 343° |
| 2026-05-05 19:16 | 55.42112 | 24.99754 | 15876 ft | 429 kts | 343° |
| 2026-05-05 19:16 | 55.45036 | 24.98648 | 15878 ft | 429 kts | 343° |
| 2026-05-05 19:16 | 55.47958 | 24.97543 | 15875 ft | 429 kts | 343° |
| 2026-05-05 19:17 | 55.50878 | 24.96435 | 15878 ft | 429 kts | 343° |
| 2026-05-05 19:17 | 55.53804 | 24.95324 | 15875 ft | 429 kts | 343° |
| 2026-05-05 19:17 | 55.56718 | 24.94215 | 15880 ft | 429 kts | 343° |
| 2026-05-05 19:17 | 55.59648 | 24.93099 | 15875 ft | 430 kts | 343° |
| 2026-05-05 19:18 | 55.62564 | 24.91986 | 15876 ft | 429 kts | 343° |
| 2026-05-05 19:18 | 55.65478 | 24.90873 | 15870 ft | 429 kts | 343° |
| 2026-05-05 19:18 | 55.68387 | 24.89760 | 15880 ft | 429 kts | 343° |
| 2026-05-05 19:18 | 55.71306 | 24.88641 | 15878 ft | 430 kts | 343° |
| 2026-05-05 19:19 | 55.74249 | 24.87511 | 15885 ft | 429 kts | 343° |
| 2026-05-05 19:19 | 55.77179 | 24.86385 | 15884 ft | 429 kts | 343° |
| 2026-05-05 19:19 | 55.80109 | 24.85257 | 15880 ft | 429 kts | 343° |
| 2026-05-05 19:19 | 55.83032 | 24.84129 | 15880 ft | 430 kts | 342° |
| 2026-05-05 19:20 | 55.86084 | 24.82951 | 15875 ft | 429 kts | 342° |
| 2026-05-05 19:20 | 55.89055 | 24.81801 | 15882 ft | 430 kts | 342° |
| 2026-05-05 19:20 | 55.91987 | 24.80665 | 15887 ft | 429 kts | 342° |
| 2026-05-05 19:20 | 55.94862 | 24.79171 | 15872 ft | 423 kts | 330° |
| 2026-05-05 19:21 | 55.97622 | 24.76450 | 15876 ft | 417 kts | 324° |
| 2026-05-05 19:21 | 56.00190 | 24.73637 | 15884 ft | 416 kts | 323° |
| 2026-05-05 19:21 | 56.02692 | 24.70889 | 15890 ft | 416 kts | 323° |
| 2026-05-05 19:21 | 56.05255 | 24.68083 | 15857 ft | 415 kts | 323° |
| 2026-05-05 19:22 | 56.07800 | 24.65304 | 15722 ft | 404 kts | 323° |
| 2026-05-05 19:22 | 56.10172 | 24.62715 | 15517 ft | 390 kts | 323° |
| 2026-05-05 19:22 | 56.12504 | 24.60165 | 15287 ft | 376 kts | 323° |
| 2026-05-05 19:22 | 56.14741 | 24.57714 | 15085 ft | 363 kts | 323° |
| 2026-05-05 19:23 | 56.16870 | 24.55380 | 14836 ft | 348 kts | 323° |
| 2026-05-05 19:23 | 56.18946 | 24.53102 | 14508 ft | 333 kts | 322° |
| 2026-05-05 19:23 | 56.20922 | 24.50929 | 14093 ft | 324 kts | 322° |
| 2026-05-05 19:23 | 56.22894 | 24.48754 | 13520 ft | 320 kts | 323° |
| 2026-05-05 19:24 | 56.24859 | 24.46586 | 12937 ft | 318 kts | 323° |
| 2026-05-05 19:24 | 56.26874 | 24.44361 | 12566 ft | 313 kts | 323° |
| 2026-05-05 19:24 | 56.28806 | 24.42226 | 12099 ft | 311 kts | 323° |
| 2026-05-05 19:24 | 56.30743 | 24.40081 | 11622 ft | 310 kts | 324° |
| 2026-05-05 19:25 | 56.32657 | 24.37961 | 11198 ft | 308 kts | 324° |
| 2026-05-05 19:25 | 56.34545 | 24.35867 | 10754 ft | 306 kts | 324° |
| 2026-05-05 19:25 | 56.36498 | 24.33699 | 10173 ft | 303 kts | 323° |
| 2026-05-05 19:25 | 56.38421 | 24.31561 | 9547 ft | 301 kts | 324° |
| 2026-05-05 19:26 | 56.40233 | 24.29545 | 8979 ft | 298 kts | 324° |
| 2026-05-05 19:26 | 56.42144 | 24.27415 | 8376 ft | 296 kts | 324° |
| 2026-05-05 19:26 | 56.43972 | 24.25376 | 7814 ft | 293 kts | 324° |
| 2026-05-05 19:26 | 56.45886 | 24.23239 | 7362 ft | 285 kts | 324° |
| 2026-05-05 19:27 | 56.47832 | 24.21064 | 7002 ft | 273 kts | 324° |
| 2026-05-05 19:27 | 56.49710 | 24.18962 | 6645 ft | 263 kts | 324° |
| 2026-05-05 19:27 | 56.51444 | 24.17017 | 6271 ft | 257 kts | 324° |
| 2026-05-05 19:27 | 56.53181 | 24.15066 | 5934 ft | 254 kts | 324° |
| 2026-05-05 19:28 | 56.54896 | 24.13138 | 5583 ft | 253 kts | 325° |
| 2026-05-05 19:28 | 56.56560 | 24.11266 | 5223 ft | 252 kts | 325° |
| 2026-05-05 19:28 | 56.58189 | 24.09432 | 4850 ft | 252 kts | 326° |
| 2026-05-05 19:28 | 56.59770 | 24.07651 | 4510 ft | 252 kts | 326° |
| 2026-05-05 19:29 | 56.61365 | 24.05853 | 4189 ft | 250 kts | 326° |
| 2026-05-05 19:29 | 56.62988 | 24.04019 | 3952 ft | 255 kts | 326° |
| 2026-05-05 19:29 | 56.64566 | 24.02236 | 3726 ft | 255 kts | 326° |
| 2026-05-05 19:29 | 56.66120 | 24.00479 | 3272 ft | 259 kts | 327° |
| 2026-05-05 19:30 | 56.67656 | 23.98740 | 2892 ft | 253 kts | 327° |
| 2026-05-05 19:30 | 56.69137 | 23.97063 | 2615 ft | 244 kts | 327° |
| 2026-05-05 19:30 | 56.70591 | 23.95412 | 2527 ft | 229 kts | 329° |
| 2026-05-05 19:30 | 56.72088 | 23.94262 | 2506 ft | 213 kts | 346° |
| 2026-05-05 19:31 | 56.73708 | 23.94039 | 2501 ft | 198 kts | 360° |
| 2026-05-05 19:31 | 56.75271 | 23.94258 | 2509 ft | 180 kts | 2° |
| 2026-05-05 19:31 | 56.76653 | 23.94536 | 2494 ft | 155 kts | 2° |
| 2026-05-05 19:31 | 56.77894 | 23.94745 | 2496 ft | 152 kts | 1° |
| 2026-05-05 19:32 | 56.79141 | 23.94945 | 2414 ft | 152 kts | 1° |
| 2026-05-05 19:32 | 56.80306 | 23.95139 | 2191 ft | 139 kts | 1° |
| 2026-05-05 19:32 | 56.81365 | 23.95314 | 1983 ft | 135 kts | 0° |
| 2026-05-05 19:32 | 56.82367 | 23.95475 | 1758 ft | 133 kts | 1° |
| 2026-05-05 19:33 | 56.83352 | 23.95638 | 1547 ft | 133 kts | 1° |
| 2026-05-05 19:33 | 56.84318 | 23.95795 | 1358 ft | 133 kts | 0° |
| 2026-05-05 19:33 | 56.85424 | 23.95944 | 1190 ft | 134 kts | 1° |
| 2026-05-05 19:33 | 56.86563 | 23.96117 | 917 ft | 132 kts | 3° |
| 2026-05-05 19:34 | 56.87664 | 23.96336 | 666 ft | 133 kts | 1° |
| 2026-05-05 19:34 | 56.88805 | 23.96532 | 435 ft | 137 kts | 0° |
| 2026-05-05 19:34 | 56.89956 | 23.96706 | 231 ft | 135 kts | 2° |
| 2026-05-05 19:35 | 56.91934 | 23.97051 | 46 ft | 77 kts | 4° |
| 2026-05-05 19:35 | 56.92335 | 23.97140 | 46 ft | 23 kts | 17° |
| 2026-05-05 19:35 | 56.92489 | 23.97287 | 46 ft | 12 kts | 36° |
| 2026-05-05 19:35 | 56.92520 | 23.97330 | 46 ft | 0 kts | 36° |
| 2026-05-05 19:36 | 56.92527 | 23.97338 | 46 ft | 2 kts | 36° |
| 2026-05-05 19:36 | 56.92575 | 23.97400 | 46 ft | 9 kts | 35° |
| 2026-05-05 19:36 | 56.92610 | 23.97523 | 46 ft | 9 kts | 117° |
| 2026-05-05 19:37 | 56.92502 | 23.97537 | 46 ft | 16 kts | 186° |
| 2026-05-05 19:37 | 56.92402 | 23.97517 | 46 ft | 0 kts | 187° |
| 2026-05-05 19:37 | 56.92374 | 23.97517 | 46 ft | 7 kts | 166° |
| 2026-05-05 19:37 | 56.92352 | 23.97591 | 46 ft | 4 kts | 99° |
| 2026-05-05 19:38 | 56.92315 | 23.97615 | 46 ft | 7 kts | 189° |
| 2026-05-05 19:38 | 56.92295 | 23.97610 | 46 ft | 0 kts | 186° |